sensor_id;sensor_type;location;lat;lon;timestamp;noise_LAeq;noise_LA_min;noise_LA_max;noise_LA01;noise_LA95
66460;Laerm;58055;52.456;4.738;2023-02-28T00:00:07;34.56;32.42;37.84;;
66460;Laerm;58055;52.456;4.738;2023-02-28T00:00:21;35.09;32.02;45.24;;
66460;Laerm;58055;52.456;4.738;2023-02-28T00:00:32;34.51;32.39;37.66;;
66460;Laerm;58055;52.456;4.738;2023-02-28T00:00:42;34.40;32.60;36.11;;
66460;Laerm;58055;52.456;4.738;2023-02-28T00:00:53;34.10;31.45;36.79;;
66460;Laerm;58055;52.456;4.738;2023-02-28T00:01:04;34.18;31.77;36.86;;
66460;Laerm;58055;52.456;4.738;2023-02-28T00:01:14;34.20;31.66;37.11;;
66460;Laerm;58055;52.456;4.738;2023-02-28T00:01:25;34.29;32.37;42.29;;
66460;Laerm;58055;52.456;4.738;2023-02-28T00:01:36;33.93;31.88;35.47;;
66460;Laerm;58055;52.456;4.738;2023-02-28T00:01:46;34.16;32.19;37.21;;
66460;Laerm;58055;52.456;4.738;2023-02-28T00:01:56;34.61;32.99;36.35;;
66460;Laerm;58055;52.456;4.738;2023-02-28T00:02:06;35.36;32.65;42.51;;
66460;Laerm;58055;52.456;4.738;2023-02-28T00:02:17;34.80;32.78;41.08;;
66460;Laerm;58055;52.456;4.738;2023-02-28T00:02:27;34.82;32.57;36.74;;
66460;Laerm;58055;52.456;4.738;2023-02-28T00:02:38;35.09;32.31;37.87;;
66460;Laerm;58055;52.456;4.738;2023-02-28T00:02:48;34.73;31.76;36.78;;
66460;Laerm;58055;52.456;4.738;2023-02-28T00:02:58;35.00;32.84;40.22;;
66460;Laerm;58055;52.456;4.738;2023-02-28T00:03:09;34.47;32.72;36.13;;
66460;Laerm;58055;52.456;4.738;2023-02-28T00:03:19;34.29;32.44;36.81;;
66460;Laerm;58055;52.456;4.738;2023-02-28T00:03:29;35.10;32.95;37.52;;
66460;Laerm;58055;52.456;4.738;2023-02-28T00:03:40;34.22;32.12;37.61;;
66460;Laerm;58055;52.456;4.738;2023-02-28T00:03:50;34.89;31.93;43.67;;
66460;Laerm;58055;52.456;4.738;2023-02-28T00:04:00;34.52;32.49;37.88;;
66460;Laerm;58055;52.456;4.738;2023-02-28T00:04:10;34.22;32.00;36.61;;
66460;Laerm;58055;52.456;4.738;2023-02-28T00:04:21;35.69;31.96;47.52;;
66460;Laerm;58055;52.456;4.738;2023-02-28T00:04:31;34.20;31.99;39.58;;
66460;Laerm;58055;52.456;4.738;2023-02-28T00:04:41;34.18;31.59;39.79;;
66460;Laerm;58055;52.456;4.738;2023-02-28T00:04:52;34.20;31.94;36.89;;
66460;Laerm;58055;52.456;4.738;2023-02-28T00:05:12;34.60;32.06;38.59;;
66460;Laerm;58055;52.456;4.738;2023-02-28T00:05:23;34.79;32.51;36.93;;
66460;Laerm;58055;52.456;4.738;2023-02-28T00:05:34;34.93;31.97;37.71;;
66460;Laerm;58055;52.456;4.738;2023-02-28T00:05:44;34.39;32.52;36.70;;
66460;Laerm;58055;52.456;4.738;2023-02-28T00:05:54;34.15;32.36;37.70;;
66460;Laerm;58055;52.456;4.738;2023-02-28T00:06:05;34.36;31.78;37.62;;
66460;Laerm;58055;52.456;4.738;2023-02-28T00:06:16;33.88;31.99;40.14;;
66460;Laerm;58055;52.456;4.738;2023-02-28T00:06:26;33.60;31.64;36.38;;
66460;Laerm;58055;52.456;4.738;2023-02-28T00:06:37;33.60;31.78;35.14;;
66460;Laerm;58055;52.456;4.738;2023-02-28T00:06:47;33.90;31.93;35.53;;
66460;Laerm;58055;52.456;4.738;2023-02-28T00:06:57;37.17;33.43;45.54;;
66460;Laerm;58055;52.456;4.738;2023-02-28T00:07:08;40.00;31.60;46.18;;
66460;Laerm;58055;52.456;4.738;2023-02-28T00:07:18;33.50;31.19;35.16;;
66460;Laerm;58055;52.456;4.738;2023-02-28T00:07:29;33.57;32.00;35.39;;
66460;Laerm;58055;52.456;4.738;2023-02-28T00:07:40;33.76;32.00;35.92;;
66460;Laerm;58055;52.456;4.738;2023-02-28T00:07:50;33.73;31.90;35.93;;
66460;Laerm;58055;52.456;4.738;2023-02-28T00:08:01;34.10;31.70;43.32;;
66460;Laerm;58055;52.456;4.738;2023-02-28T00:08:11;33.60;32.03;35.98;;
66460;Laerm;58055;52.456;4.738;2023-02-28T00:08:23;33.58;31.38;35.44;;
66460;Laerm;58055;52.456;4.738;2023-02-28T00:08:33;33.51;31.64;35.24;;
66460;Laerm;58055;52.456;4.738;2023-02-28T00:08:43;33.46;31.91;36.35;;
66460;Laerm;58055;52.456;4.738;2023-02-28T00:08:54;33.75;31.81;37.19;;
66460;Laerm;58055;52.456;4.738;2023-02-28T00:09:04;34.60;31.81;40.26;;
66460;Laerm;58055;52.456;4.738;2023-02-28T00:09:14;35.29;31.68;41.92;;
66460;Laerm;58055;52.456;4.738;2023-02-28T00:09:25;34.11;31.38;37.57;;
66460;Laerm;58055;52.456;4.738;2023-02-28T00:09:35;33.79;31.47;37.15;;
66460;Laerm;58055;52.456;4.738;2023-02-28T00:09:45;34.16;31.24;39.33;;
66460;Laerm;58055;52.456;4.738;2023-02-28T00:09:55;32.59;31.07;35.03;;
66460;Laerm;58055;52.456;4.738;2023-02-28T00:10:06;32.52;30.84;36.57;;
66460;Laerm;58055;52.456;4.738;2023-02-28T00:10:18;34.45;31.26;44.02;;
66460;Laerm;58055;52.456;4.738;2023-02-28T00:10:30;34.10;30.91;40.36;;
66460;Laerm;58055;52.456;4.738;2023-02-28T00:10:41;33.11;30.79;35.57;;
66460;Laerm;58055;52.456;4.738;2023-02-28T00:10:51;32.63;30.67;33.96;;
66460;Laerm;58055;52.456;4.738;2023-02-28T00:11:02;37.77;31.14;53.76;;
66460;Laerm;58055;52.456;4.738;2023-02-28T00:11:13;35.89;31.40;40.05;;
66460;Laerm;58055;52.456;4.738;2023-02-28T00:11:24;41.57;31.98;48.11;;
66460;Laerm;58055;52.456;4.738;2023-02-28T00:11:34;33.32;31.21;36.96;;
66460;Laerm;58055;52.456;4.738;2023-02-28T00:11:45;33.95;31.83;38.87;;
66460;Laerm;58055;52.456;4.738;2023-02-28T00:11:55;33.52;31.74;35.78;;
66460;Laerm;58055;52.456;4.738;2023-02-28T00:12:05;35.20;31.88;42.94;;
66460;Laerm;58055;52.456;4.738;2023-02-28T00:12:20;34.70;32.24;42.60;;
66460;Laerm;58055;52.456;4.738;2023-02-28T00:12:30;37.35;33.79;40.97;;
66460;Laerm;58055;52.456;4.738;2023-02-28T00:12:40;34.86;33.23;37.39;;
66460;Laerm;58055;52.456;4.738;2023-02-28T00:12:51;35.00;32.60;40.92;;
66460;Laerm;58055;52.456;4.738;2023-02-28T00:13:02;34.62;33.01;36.76;;
66460;Laerm;58055;52.456;4.738;2023-02-28T00:13:14;35.31;32.49;44.23;;
66460;Laerm;58055;52.456;4.738;2023-02-28T00:13:24;34.71;33.23;38.82;;
66460;Laerm;58055;52.456;4.738;2023-02-28T00:13:35;34.94;33.24;37.50;;
66460;Laerm;58055;52.456;4.738;2023-02-28T00:13:47;35.28;33.63;39.61;;
66460;Laerm;58055;52.456;4.738;2023-02-28T00:13:58;37.53;33.71;49.25;;
66460;Laerm;58055;52.456;4.738;2023-02-28T00:14:08;36.14;33.01;47.76;;
66460;Laerm;58055;52.456;4.738;2023-02-28T00:14:18;35.77;33.14;43.33;;
66460;Laerm;58055;52.456;4.738;2023-02-28T00:14:29;34.99;32.30;38.19;;
66460;Laerm;58055;52.456;4.738;2023-02-28T00:14:40;34.88;32.17;40.02;;
66460;Laerm;58055;52.456;4.738;2023-02-28T00:14:50;35.68;33.87;40.80;;
66460;Laerm;58055;52.456;4.738;2023-02-28T00:15:01;37.06;32.83;49.53;;
66460;Laerm;58055;52.456;4.738;2023-02-28T00:15:11;34.57;31.40;43.50;;
66460;Laerm;58055;52.456;4.738;2023-02-28T00:15:22;36.01;31.91;49.68;;
66460;Laerm;58055;52.456;4.738;2023-02-28T00:15:33;33.26;31.28;38.47;;
66460;Laerm;58055;52.456;4.738;2023-02-28T00:15:43;32.87;31.37;37.40;;
66460;Laerm;58055;52.456;4.738;2023-02-28T00:15:58;33.10;31.02;35.60;;
66460;Laerm;58055;52.456;4.738;2023-02-28T00:16:13;33.25;31.02;38.32;;
66460;Laerm;58055;52.456;4.738;2023-02-28T00:16:24;33.18;31.09;37.05;;
66460;Laerm;58055;52.456;4.738;2023-02-28T00:16:35;32.80;30.87;34.87;;
66460;Laerm;58055;52.456;4.738;2023-02-28T00:16:45;32.86;31.30;35.37;;
66460;Laerm;58055;52.456;4.738;2023-02-28T00:16:55;36.13;31.18;50.14;;
66460;Laerm;58055;52.456;4.738;2023-02-28T00:17:05;33.16;31.27;35.85;;
66460;Laerm;58055;52.456;4.738;2023-02-28T00:17:16;33.21;30.92;37.17;;
66460;Laerm;58055;52.456;4.738;2023-02-28T00:17:27;33.29;31.53;37.13;;
66460;Laerm;58055;52.456;4.738;2023-02-28T00:17:38;33.39;31.62;39.10;;
66460;Laerm;58055;52.456;4.738;2023-02-28T00:17:48;34.18;31.58;41.72;;
66460;Laerm;58055;52.456;4.738;2023-02-28T00:17:59;33.19;31.40;37.01;;
66460;Laerm;58055;52.456;4.738;2023-02-28T00:18:09;33.38;31.08;38.63;;
66460;Laerm;58055;52.456;4.738;2023-02-28T00:18:19;34.67;32.17;45.00;;
66460;Laerm;58055;52.456;4.738;2023-02-28T00:18:29;33.69;30.89;43.10;;
66460;Laerm;58055;52.456;4.738;2023-02-28T00:18:40;36.22;31.24;47.01;;
66460;Laerm;58055;52.456;4.738;2023-02-28T00:18:50;34.43;31.78;39.63;;
66460;Laerm;58055;52.456;4.738;2023-02-28T00:19:01;33.40;31.34;39.68;;
66460;Laerm;58055;52.456;4.738;2023-02-28T00:19:11;33.91;31.96;37.64;;
66460;Laerm;58055;52.456;4.738;2023-02-28T00:19:23;34.92;31.95;43.99;;
66460;Laerm;58055;52.456;4.738;2023-02-28T00:19:33;34.02;31.70;44.30;;
66460;Laerm;58055;52.456;4.738;2023-02-28T00:19:43;35.94;31.28;44.73;;
66460;Laerm;58055;52.456;4.738;2023-02-28T00:19:54;33.07;31.16;37.20;;
66460;Laerm;58055;52.456;4.738;2023-02-28T00:20:05;33.07;31.36;35.04;;
66460;Laerm;58055;52.456;4.738;2023-02-28T00:20:20;33.11;31.11;35.45;;
66460;Laerm;58055;52.456;4.738;2023-02-28T00:20:30;33.73;31.47;42.21;;
66460;Laerm;58055;52.456;4.738;2023-02-28T00:20:40;33.06;31.39;36.98;;
66460;Laerm;58055;52.456;4.738;2023-02-28T00:20:51;33.19;30.87;35.52;;
66460;Laerm;58055;52.456;4.738;2023-02-28T00:21:01;33.79;32.18;38.88;;
66460;Laerm;58055;52.456;4.738;2023-02-28T00:21:11;36.09;32.84;47.90;;
66460;Laerm;58055;52.456;4.738;2023-02-28T00:21:21;34.39;31.77;38.71;;
66460;Laerm;58055;52.456;4.738;2023-02-28T00:21:32;37.41;32.47;47.24;;
66460;Laerm;58055;52.456;4.738;2023-02-28T00:21:42;39.56;32.86;46.54;;
66460;Laerm;58055;52.456;4.738;2023-02-28T00:21:52;33.21;31.36;36.91;;
66460;Laerm;58055;52.456;4.738;2023-02-28T00:22:03;33.71;32.01;38.24;;
66460;Laerm;58055;52.456;4.738;2023-02-28T00:22:13;33.75;31.52;42.60;;
66460;Laerm;58055;52.456;4.738;2023-02-28T00:22:24;33.20;31.32;37.02;;
66460;Laerm;58055;52.456;4.738;2023-02-28T00:22:34;33.00;31.52;35.58;;
66460;Laerm;58055;52.456;4.738;2023-02-28T00:22:45;33.26;31.67;35.22;;
66460;Laerm;58055;52.456;4.738;2023-02-28T00:22:56;33.63;31.48;36.70;;
66460;Laerm;58055;52.456;4.738;2023-02-28T00:23:07;33.35;31.04;35.51;;
66460;Laerm;58055;52.456;4.738;2023-02-28T00:23:18;33.05;31.50;34.74;;
66460;Laerm;58055;52.456;4.738;2023-02-28T00:23:28;33.62;31.59;36.41;;
66460;Laerm;58055;52.456;4.738;2023-02-28T00:23:38;35.19;32.19;40.60;;
66460;Laerm;58055;52.456;4.738;2023-02-28T00:23:48;34.93;32.04;39.05;;
66460;Laerm;58055;52.456;4.738;2023-02-28T00:23:59;34.39;32.01;40.79;;
66460;Laerm;58055;52.456;4.738;2023-02-28T00:24:09;34.94;32.20;40.93;;
66460;Laerm;58055;52.456;4.738;2023-02-28T00:24:19;34.35;32.02;40.15;;
66460;Laerm;58055;52.456;4.738;2023-02-28T00:24:30;34.35;32.43;38.20;;
66460;Laerm;58055;52.456;4.738;2023-02-28T00:24:40;33.68;31.81;38.47;;
66460;Laerm;58055;52.456;4.738;2023-02-28T00:24:50;33.87;31.98;39.58;;
66460;Laerm;58055;52.456;4.738;2023-02-28T00:25:01;34.22;31.75;43.20;;
66460;Laerm;58055;52.456;4.738;2023-02-28T00:25:11;34.15;31.54;43.83;;
66460;Laerm;58055;52.456;4.738;2023-02-28T00:25:23;34.18;31.77;44.71;;
66460;Laerm;58055;52.456;4.738;2023-02-28T00:25:33;34.31;31.22;44.43;;
66460;Laerm;58055;52.456;4.738;2023-02-28T00:25:43;34.16;31.64;42.85;;
66460;Laerm;58055;52.456;4.738;2023-02-28T00:25:54;33.56;31.67;38.66;;
66460;Laerm;58055;52.456;4.738;2023-02-28T00:26:04;32.79;31.04;35.23;;
66460;Laerm;58055;52.456;4.738;2023-02-28T00:26:15;32.35;30.81;34.16;;
66460;Laerm;58055;52.456;4.738;2023-02-28T00:26:25;32.63;30.87;34.97;;
66460;Laerm;58055;52.456;4.738;2023-02-28T00:26:35;32.65;30.72;35.14;;
66460;Laerm;58055;52.456;4.738;2023-02-28T00:26:45;32.86;30.56;39.83;;
66460;Laerm;58055;52.456;4.738;2023-02-28T00:26:56;31.75;30.03;33.78;;
66460;Laerm;58055;52.456;4.738;2023-02-28T00:27:06;31.75;30.22;33.45;;
66460;Laerm;58055;52.456;4.738;2023-02-28T00:27:17;32.27;30.79;33.89;;
66460;Laerm;58055;52.456;4.738;2023-02-28T00:27:27;32.34;30.44;35.46;;
66460;Laerm;58055;52.456;4.738;2023-02-28T00:27:38;32.65;30.53;37.59;;
66460;Laerm;58055;52.456;4.738;2023-02-28T00:27:48;32.55;30.59;35.83;;
66460;Laerm;58055;52.456;4.738;2023-02-28T00:27:59;32.06;30.44;37.10;;
66460;Laerm;58055;52.456;4.738;2023-02-28T00:28:09;32.21;30.08;38.57;;
66460;Laerm;58055;52.456;4.738;2023-02-28T00:28:19;31.84;30.43;33.10;;
66460;Laerm;58055;52.456;4.738;2023-02-28T00:28:30;32.01;30.49;34.29;;
66460;Laerm;58055;52.456;4.738;2023-02-28T00:28:40;32.26;30.77;34.39;;
66460;Laerm;58055;52.456;4.738;2023-02-28T00:28:51;32.08;30.45;35.42;;
66460;Laerm;58055;52.456;4.738;2023-02-28T00:29:02;31.75;30.22;34.12;;
66460;Laerm;58055;52.456;4.738;2023-02-28T00:29:13;31.90;30.43;33.60;;
66460;Laerm;58055;52.456;4.738;2023-02-28T00:29:23;32.16;30.39;34.76;;
66460;Laerm;58055;52.456;4.738;2023-02-28T00:29:33;33.83;31.26;38.35;;
66460;Laerm;58055;52.456;4.738;2023-02-28T00:29:43;34.61;32.12;37.76;;
66460;Laerm;58055;52.456;4.738;2023-02-28T00:29:56;35.44;32.54;40.10;;
66460;Laerm;58055;52.456;4.738;2023-02-28T00:30:07;35.82;32.11;41.66;;
66460;Laerm;58055;52.456;4.738;2023-02-28T00:30:18;36.49;31.96;42.58;;
66460;Laerm;58055;52.456;4.738;2023-02-28T00:30:29;36.79;32.06;45.64;;
66460;Laerm;58055;52.456;4.738;2023-02-28T00:30:39;35.63;32.09;39.63;;
66460;Laerm;58055;52.456;4.738;2023-02-28T00:30:50;34.43;31.22;40.82;;
66460;Laerm;58055;52.456;4.738;2023-02-28T00:31:00;32.48;31.00;34.82;;
66460;Laerm;58055;52.456;4.738;2023-02-28T00:31:10;33.31;31.33;36.33;;
66460;Laerm;58055;52.456;4.738;2023-02-28T00:31:20;32.84;30.42;38.33;;
66460;Laerm;58055;52.456;4.738;2023-02-28T00:31:31;32.26;30.71;35.67;;
66460;Laerm;58055;52.456;4.738;2023-02-28T00:31:41;33.54;30.78;40.67;;
66460;Laerm;58055;52.456;4.738;2023-02-28T00:31:51;33.26;31.53;35.49;;
66460;Laerm;58055;52.456;4.738;2023-02-28T00:32:02;32.72;31.06;34.68;;
66460;Laerm;58055;52.456;4.738;2023-02-28T00:32:12;32.42;30.55;34.48;;
66460;Laerm;58055;52.456;4.738;2023-02-28T00:32:23;32.51;30.38;35.44;;
66460;Laerm;58055;52.456;4.738;2023-02-28T00:32:33;32.61;30.84;36.12;;
66460;Laerm;58055;52.456;4.738;2023-02-28T00:32:44;32.95;31.15;35.48;;
66460;Laerm;58055;52.456;4.738;2023-02-28T00:32:54;33.92;32.07;36.34;;
66460;Laerm;58055;52.456;4.738;2023-02-28T00:33:05;35.40;32.65;41.36;;
66460;Laerm;58055;52.456;4.738;2023-02-28T00:33:15;34.62;32.18;38.69;;
66460;Laerm;58055;52.456;4.738;2023-02-28T00:33:26;34.43;32.17;39.73;;
66460;Laerm;58055;52.456;4.738;2023-02-28T00:33:36;34.31;32.41;38.04;;
66460;Laerm;58055;52.456;4.738;2023-02-28T00:33:46;34.12;32.05;35.97;;
66460;Laerm;58055;52.456;4.738;2023-02-28T00:33:57;35.28;32.76;38.08;;
66460;Laerm;58055;52.456;4.738;2023-02-28T00:34:08;36.15;32.03;41.62;;
66460;Laerm;58055;52.456;4.738;2023-02-28T00:34:18;34.31;32.44;37.58;;
66460;Laerm;58055;52.456;4.738;2023-02-28T00:34:28;35.25;32.23;46.28;;
66460;Laerm;58055;52.456;4.738;2023-02-28T00:34:39;35.55;31.73;46.59;;
66460;Laerm;58055;52.456;4.738;2023-02-28T00:34:49;34.44;31.74;44.05;;
66460;Laerm;58055;52.456;4.738;2023-02-28T00:34:59;34.15;31.43;39.61;;
66460;Laerm;58055;52.456;4.738;2023-02-28T00:35:10;34.21;31.48;48.04;;
66460;Laerm;58055;52.456;4.738;2023-02-28T00:35:21;33.58;31.42;37.88;;
66460;Laerm;58055;52.456;4.738;2023-02-28T00:35:31;32.68;30.96;34.76;;
66460;Laerm;58055;52.456;4.738;2023-02-28T00:35:41;33.02;31.32;37.06;;
66460;Laerm;58055;52.456;4.738;2023-02-28T00:35:52;33.82;31.45;44.34;;
66460;Laerm;58055;52.456;4.738;2023-02-28T00:36:10;32.90;30.97;36.99;;
66460;Laerm;58055;52.456;4.738;2023-02-28T00:36:21;32.71;30.87;35.28;;
66460;Laerm;58055;52.456;4.738;2023-02-28T00:36:31;32.66;30.51;36.47;;
66460;Laerm;58055;52.456;4.738;2023-02-28T00:36:41;32.96;31.20;35.52;;
66460;Laerm;58055;52.456;4.738;2023-02-28T00:36:55;33.18;31.35;36.93;;
66460;Laerm;58055;52.456;4.738;2023-02-28T00:37:05;32.67;30.81;34.82;;
66460;Laerm;58055;52.456;4.738;2023-02-28T00:37:16;33.31;31.34;35.52;;
66460;Laerm;58055;52.456;4.738;2023-02-28T00:37:27;32.93;31.11;36.22;;
66460;Laerm;58055;52.456;4.738;2023-02-28T00:37:37;32.54;31.05;33.89;;
66460;Laerm;58055;52.456;4.738;2023-02-28T00:37:47;33.19;31.01;36.58;;
66460;Laerm;58055;52.456;4.738;2023-02-28T00:37:58;33.20;31.45;34.78;;
66460;Laerm;58055;52.456;4.738;2023-02-28T00:38:08;33.33;30.75;36.43;;
66460;Laerm;58055;52.456;4.738;2023-02-28T00:38:18;33.40;31.06;35.45;;
66460;Laerm;58055;52.456;4.738;2023-02-28T00:38:29;33.67;31.86;37.21;;
66460;Laerm;58055;52.456;4.738;2023-02-28T00:38:40;33.48;31.99;35.35;;
66460;Laerm;58055;52.456;4.738;2023-02-28T00:38:50;33.17;31.24;34.85;;
66460;Laerm;58055;52.456;4.738;2023-02-28T00:39:01;33.12;31.47;34.47;;
66460;Laerm;58055;52.456;4.738;2023-02-28T00:39:11;33.33;31.69;35.29;;
66460;Laerm;58055;52.456;4.738;2023-02-28T00:39:21;33.36;30.99;35.66;;
66460;Laerm;58055;52.456;4.738;2023-02-28T00:39:33;33.02;31.28;34.82;;
66460;Laerm;58055;52.456;4.738;2023-02-28T00:39:44;32.94;31.28;35.36;;
66460;Laerm;58055;52.456;4.738;2023-02-28T00:39:54;33.43;31.69;35.61;;
66460;Laerm;58055;52.456;4.738;2023-02-28T00:40:05;33.75;31.87;36.88;;
66460;Laerm;58055;52.456;4.738;2023-02-28T00:40:16;35.18;32.62;38.69;;
66460;Laerm;58055;52.456;4.738;2023-02-28T00:40:26;33.91;31.62;37.40;;
66460;Laerm;58055;52.456;4.738;2023-02-28T00:40:37;33.48;31.73;36.54;;
66460;Laerm;58055;52.456;4.738;2023-02-28T00:40:47;33.28;31.24;36.91;;
66460;Laerm;58055;52.456;4.738;2023-02-28T00:40:57;33.35;31.68;35.84;;
66460;Laerm;58055;52.456;4.738;2023-02-28T00:41:08;33.25;31.01;35.59;;
66460;Laerm;58055;52.456;4.738;2023-02-28T00:41:19;33.36;31.15;35.47;;
66460;Laerm;58055;52.456;4.738;2023-02-28T00:41:29;34.24;31.61;37.67;;
66460;Laerm;58055;52.456;4.738;2023-02-28T00:41:39;33.19;30.88;35.51;;
66460;Laerm;58055;52.456;4.738;2023-02-28T00:41:49;32.67;30.86;34.39;;
66460;Laerm;58055;52.456;4.738;2023-02-28T00:42:00;32.90;31.06;35.14;;
66460;Laerm;58055;52.456;4.738;2023-02-28T00:42:10;33.41;31.53;36.49;;
66460;Laerm;58055;52.456;4.738;2023-02-28T00:42:20;33.07;31.09;35.21;;
66460;Laerm;58055;52.456;4.738;2023-02-28T00:42:31;32.68;30.92;34.76;;
66460;Laerm;58055;52.456;4.738;2023-02-28T00:42:41;33.03;31.40;36.36;;
66460;Laerm;58055;52.456;4.738;2023-02-28T00:42:51;33.04;30.97;36.95;;
66460;Laerm;58055;52.456;4.738;2023-02-28T00:43:01;33.49;31.43;37.69;;
66460;Laerm;58055;52.456;4.738;2023-02-28T00:43:13;33.67;31.26;40.12;;
66460;Laerm;58055;52.456;4.738;2023-02-28T00:43:23;32.44;31.11;33.95;;
66460;Laerm;58055;52.456;4.738;2023-02-28T00:43:34;32.60;31.11;35.63;;
66460;Laerm;58055;52.456;4.738;2023-02-28T00:43:44;32.89;31.15;36.00;;
66460;Laerm;58055;52.456;4.738;2023-02-28T00:43:55;32.58;31.34;34.44;;
66460;Laerm;58055;52.456;4.738;2023-02-28T00:44:05;32.77;31.28;36.16;;
66460;Laerm;58055;52.456;4.738;2023-02-28T00:44:15;32.55;31.00;36.13;;
66460;Laerm;58055;52.456;4.738;2023-02-28T00:44:25;32.43;30.41;35.96;;
66460;Laerm;58055;52.456;4.738;2023-02-28T00:44:36;31.85;30.30;35.61;;
66460;Laerm;58055;52.456;4.738;2023-02-28T00:44:46;31.78;30.21;33.86;;
66460;Laerm;58055;52.456;4.738;2023-02-28T00:44:56;32.06;30.16;34.11;;
66460;Laerm;58055;52.456;4.738;2023-02-28T00:45:07;31.90;30.36;33.86;;
66460;Laerm;58055;52.456;4.738;2023-02-28T00:45:18;33.59;31.32;37.06;;
66460;Laerm;58055;52.456;4.738;2023-02-28T00:45:29;33.66;31.43;36.88;;
66460;Laerm;58055;52.456;4.738;2023-02-28T00:45:39;33.20;31.28;37.08;;
66460;Laerm;58055;52.456;4.738;2023-02-28T00:45:49;32.55;31.08;34.12;;
66460;Laerm;58055;52.456;4.738;2023-02-28T00:46:00;32.63;30.95;34.27;;
66460;Laerm;58055;52.456;4.738;2023-02-28T00:46:10;33.05;31.35;36.54;;
66460;Laerm;58055;52.456;4.738;2023-02-28T00:46:20;33.16;31.60;34.69;;
66460;Laerm;58055;52.456;4.738;2023-02-28T00:46:31;32.85;31.07;37.76;;
66460;Laerm;58055;52.456;4.738;2023-02-28T00:46:41;32.74;30.82;36.21;;
66460;Laerm;58055;52.456;4.738;2023-02-28T00:46:51;32.62;31.28;34.71;;
66460;Laerm;58055;52.456;4.738;2023-02-28T00:47:04;32.64;31.15;34.74;;
66460;Laerm;58055;52.456;4.738;2023-02-28T00:47:14;32.47;30.38;33.91;;
66460;Laerm;58055;52.456;4.738;2023-02-28T00:47:24;32.29;30.87;35.25;;
66460;Laerm;58055;52.456;4.738;2023-02-28T00:47:35;32.24;30.80;34.47;;
66460;Laerm;58055;52.456;4.738;2023-02-28T00:47:45;32.29;30.93;33.71;;
66460;Laerm;58055;52.456;4.738;2023-02-28T00:47:56;32.28;30.51;34.03;;
66460;Laerm;58055;52.456;4.738;2023-02-28T00:48:06;32.47;31.00;34.44;;
66460;Laerm;58055;52.456;4.738;2023-02-28T00:48:17;31.98;30.52;33.61;;
66460;Laerm;58055;52.456;4.738;2023-02-28T00:48:27;32.11;30.57;33.74;;
66460;Laerm;58055;52.456;4.738;2023-02-28T00:48:37;31.83;30.22;34.16;;
66460;Laerm;58055;52.456;4.738;2023-02-28T00:48:48;31.81;30.72;33.19;;
66460;Laerm;58055;52.456;4.738;2023-02-28T00:48:58;32.02;30.47;35.38;;
66460;Laerm;58055;52.456;4.738;2023-02-28T00:49:08;32.74;30.91;35.65;;
66460;Laerm;58055;52.456;4.738;2023-02-28T00:49:19;35.75;30.97;47.39;;
66460;Laerm;58055;52.456;4.738;2023-02-28T00:49:30;32.12;30.47;33.82;;
66460;Laerm;58055;52.456;4.738;2023-02-28T00:49:40;32.05;30.15;35.39;;
66460;Laerm;58055;52.456;4.738;2023-02-28T00:49:50;32.20;30.24;38.06;;
66460;Laerm;58055;52.456;4.738;2023-02-28T00:50:01;31.80;30.46;36.02;;
66460;Laerm;58055;52.456;4.738;2023-02-28T00:50:11;31.72;30.08;33.72;;
66460;Laerm;58055;52.456;4.738;2023-02-28T00:50:22;31.75;30.29;35.21;;
66460;Laerm;58055;52.456;4.738;2023-02-28T00:50:32;31.59;29.95;33.41;;
66460;Laerm;58055;52.456;4.738;2023-02-28T00:50:42;31.61;30.32;33.26;;
66460;Laerm;58055;52.456;4.738;2023-02-28T00:50:53;31.86;30.15;37.44;;
66460;Laerm;58055;52.456;4.738;2023-02-28T00:51:03;31.69;30.45;33.42;;
66460;Laerm;58055;52.456;4.738;2023-02-28T00:51:14;31.99;30.59;33.73;;
66460;Laerm;58055;52.456;4.738;2023-02-28T00:51:24;32.40;30.67;33.80;;
66460;Laerm;58055;52.456;4.738;2023-02-28T00:51:34;32.53;30.62;34.22;;
66460;Laerm;58055;52.456;4.738;2023-02-28T00:51:44;32.80;31.06;34.49;;
66460;Laerm;58055;52.456;4.738;2023-02-28T00:51:55;32.96;30.99;38.70;;
66460;Laerm;58055;52.456;4.738;2023-02-28T00:52:05;32.82;30.97;38.37;;
66460;Laerm;58055;52.456;4.738;2023-02-28T00:52:15;32.64;31.07;39.13;;
66460;Laerm;58055;52.456;4.738;2023-02-28T00:52:26;35.47;31.32;49.30;;
66460;Laerm;58055;52.456;4.738;2023-02-28T00:52:36;32.70;31.12;38.65;;
66460;Laerm;58055;52.456;4.738;2023-02-28T00:52:46;32.35;30.77;34.01;;
66460;Laerm;58055;52.456;4.738;2023-02-28T00:52:57;32.94;31.31;34.73;;
66460;Laerm;58055;52.456;4.738;2023-02-28T00:53:07;33.23;31.34;39.19;;
66460;Laerm;58055;52.456;4.738;2023-02-28T00:53:17;32.75;31.00;36.44;;
66460;Laerm;58055;52.456;4.738;2023-02-28T00:53:28;32.61;30.62;35.91;;
66460;Laerm;58055;52.456;4.738;2023-02-28T00:53:38;33.64;30.80;42.02;;
66460;Laerm;58055;52.456;4.738;2023-02-28T00:53:48;33.68;30.92;45.05;;
66460;Laerm;58055;52.456;4.738;2023-02-28T00:53:59;32.99;30.95;39.83;;
66460;Laerm;58055;52.456;4.738;2023-02-28T00:54:09;32.70;31.33;34.60;;
66460;Laerm;58055;52.456;4.738;2023-02-28T00:54:20;32.58;31.00;34.27;;
66460;Laerm;58055;52.456;4.738;2023-02-28T00:54:30;33.56;31.45;36.28;;
66460;Laerm;58055;52.456;4.738;2023-02-28T00:54:40;32.90;31.33;35.88;;
66460;Laerm;58055;52.456;4.738;2023-02-28T00:54:51;33.41;30.48;43.68;;
66460;Laerm;58055;52.456;4.738;2023-02-28T00:55:01;33.36;31.28;38.90;;
66460;Laerm;58055;52.456;4.738;2023-02-28T00:55:11;33.17;30.79;35.55;;
66460;Laerm;58055;52.456;4.738;2023-02-28T00:55:22;34.29;31.39;39.31;;
66460;Laerm;58055;52.456;4.738;2023-02-28T00:55:32;34.44;32.13;37.41;;
66460;Laerm;58055;52.456;4.738;2023-02-28T00:55:42;36.08;32.38;47.09;;
66460;Laerm;58055;52.456;4.738;2023-02-28T00:55:53;34.65;32.24;38.10;;
66460;Laerm;58055;52.456;4.738;2023-02-28T00:56:03;35.87;32.76;39.74;;
66460;Laerm;58055;52.456;4.738;2023-02-28T00:56:13;36.28;32.60;40.32;;
66460;Laerm;58055;52.456;4.738;2023-02-28T00:56:24;34.26;32.31;37.22;;
66460;Laerm;58055;52.456;4.738;2023-02-28T00:56:34;34.37;32.13;36.70;;
66460;Laerm;58055;52.456;4.738;2023-02-28T00:56:44;33.70;31.98;36.98;;
66460;Laerm;58055;52.456;4.738;2023-02-28T00:56:56;33.68;31.96;35.67;;
66460;Laerm;58055;52.456;4.738;2023-02-28T00:57:06;33.28;31.33;35.15;;
66460;Laerm;58055;52.456;4.738;2023-02-28T00:57:16;33.17;31.68;34.95;;
66460;Laerm;58055;52.456;4.738;2023-02-28T00:57:26;33.00;31.33;35.72;;
66460;Laerm;58055;52.456;4.738;2023-02-28T00:57:37;32.98;31.31;35.59;;
66460;Laerm;58055;52.456;4.738;2023-02-28T00:57:47;32.98;31.14;34.61;;
66460;Laerm;58055;52.456;4.738;2023-02-28T00:57:57;32.86;31.00;35.11;;
66460;Laerm;58055;52.456;4.738;2023-02-28T00:58:07;32.74;30.78;35.43;;
66460;Laerm;58055;52.456;4.738;2023-02-28T00:58:18;34.06;31.57;40.32;;
66460;Laerm;58055;52.456;4.738;2023-02-28T00:58:28;33.47;31.29;39.00;;
66460;Laerm;58055;52.456;4.738;2023-02-28T00:58:39;32.89;31.32;34.72;;
66460;Laerm;58055;52.456;4.738;2023-02-28T00:58:49;32.74;30.91;34.24;;
66460;Laerm;58055;52.456;4.738;2023-02-28T00:58:59;32.91;31.39;35.41;;
66460;Laerm;58055;52.456;4.738;2023-02-28T00:59:09;33.12;31.50;34.99;;
66460;Laerm;58055;52.456;4.738;2023-02-28T00:59:21;33.83;31.83;37.26;;